Time;durP1;ratioP1;P1;durP2;ratioP2;P2;SDS_P1;SDS_P2;PMS_P1;PMS_P2;Temp;Humidity;BMP_temperature;BMP_pressure;BME280_temperature;BME280_humidity;BME280_pressure;Samples;Min_cycle;Max_cycle;Signal;HPM_P1;HPM_P2
2023/11/23 00:01:22;;;;;;;12.80;9.80;;;5.50;1.00;;;;;;5078957;28;20454;-61
2023/11/23 00:03:50;;;;;;;15.37;10.67;;;5.60;1.00;;;;;;5079356;28;20446;-61
2023/11/23 00:06:17;;;;;;;14.17;9.03;;;5.60;1.00;;;;;;5079423;28;20556;-61
2023/11/23 00:08:44;;;;;;;14.73;10.23;;;5.60;1.00;;;;;;5079687;28;20461;-61
2023/11/23 00:11:12;;;;;;;13.60;9.97;;;5.60;14.10;;;;;;5078912;28;20583;-61
2023/11/23 00:13:39;;;;;;;12.53;10.17;;;5.60;23.40;;;;;;5078941;28;20753;-61
2023/11/23 00:16:07;;;;;;;13.40;9.70;;;5.60;5.60;;;;;;5079258;28;20464;-61
2023/11/23 00:18:36;;;;;;;16.23;11.10;;;5.60;1.00;;;;;;5079093;28;20819;-60
2023/11/23 00:21:03;;;;;;;17.43;10.30;;;5.60;12.20;;;;;;5078785;28;20769;-61
2023/11/23 00:23:31;;;;;;;14.37;9.10;;;5.60;94.00;;;;;;5079081;28;20791;-61
2023/11/23 00:25:58;;;;;;;15.97;11.03;;;5.60;99.90;;;;;;5078663;28;20464;-61
2023/11/23 00:28:26;;;;;;;16.57;10.90;;;5.60;99.90;;;;;;5078801;28;20765;-61
2023/11/23 00:30:53;;;;;;;14.43;10.40;;;5.60;99.90;;;;;;5077770;28;20489;-61
2023/11/23 00:33:20;;;;;;;13.30;10.50;;;5.60;99.90;;;;;;5079261;28;20461;-61
2023/11/23 00:35:49;;;;;;;15.90;10.70;;;5.60;99.90;;;;;;5078817;28;20701;-61
2023/11/23 00:38:18;;;;;;;17.70;12.00;;;5.60;99.90;;;;;;5078604;28;20552;-61
2023/11/23 00:40:45;;;;;;;16.27;11.50;;;5.50;1.00;;;;;;5078376;28;20457;-61
2023/11/23 00:43:12;;;;;;;15.97;11.10;;;5.50;1.00;;;;;;5078167;28;20484;-60
2023/11/23 00:45:40;;;;;;;19.70;12.20;;;5.50;1.00;;;;;;5078252;28;20583;-61
2023/11/23 00:48:07;;;;;;;17.33;10.90;;;5.40;1.00;;;;;;5078459;28;20895;-61
2023/11/23 00:50:34;;;;;;;17.60;10.90;;;5.40;1.00;;;;;;5078377;28;21024;-61
2023/11/23 00:53:03;;;;;;;17.27;11.13;;;5.40;67.00;;;;;;5078046;28;20463;-60
2023/11/23 00:55:30;;;;;;;19.03;12.23;;;5.40;99.90;;;;;;5077860;28;20913;-60
2023/11/23 00:57:57;;;;;;;19.60;13.30;;;5.40;99.90;;;;;;5078309;28;20564;-61
2023/11/23 01:00:24;;;;;;;18.50;12.40;;;5.40;1.00;;;;;;5078096;28;20462;-60
2023/11/23 01:02:52;;;;;;;15.67;11.23;;;5.30;1.00;;;;;;5077890;28;20795;-60
2023/11/23 01:05:19;;;;;;;15.27;11.07;;;5.30;16.00;;;;;;5078123;28;20467;-60
2023/11/23 01:07:47;;;;;;;17.70;11.70;;;5.30;99.90;;;;;;5077877;28;20520;-61
2023/11/23 01:10:15;;;;;;;20.13;12.63;;;5.30;99.90;;;;;;5078554;28;20503;-61
2023/11/23 01:12:43;;;;;;;15.13;12.17;;;5.30;99.90;;;;;;5078014;28;20460;-61
2023/11/23 01:15:12;;;;;;;17.90;12.13;;;5.30;99.90;;;;;;5078145;28;20489;-61
2023/11/23 01:17:39;;;;;;;20.60;12.30;;;5.30;99.90;;;;;;5077259;28;20461;-61
2023/11/23 01:20:08;;;;;;;16.07;11.50;;;5.30;1.00;;;;;;5077475;28;20544;-61
2023/11/23 01:22:36;;;;;;;15.63;11.43;;;5.30;1.00;;;;;;5078397;28;20906;-61
2023/11/23 01:25:05;;;;;;;16.63;12.20;;;5.30;99.90;;;;;;5077868;28;20527;-60
2023/11/23 01:27:33;;;;;;;20.70;12.90;;;5.30;1.00;;;;;;5077572;28;20504;-61
2023/11/23 01:30:01;;;;;;;17.17;11.90;;;5.30;1.00;;;;;;5076818;28;20489;-61
2023/11/23 01:32:28;;;;;;;19.03;13.43;;;5.30;1.00;;;;;;5077561;28;20947;-61
2023/11/23 01:34:55;;;;;;;18.50;13.67;;;5.30;1.00;;;;;;5076420;28;20457;-61
2023/11/23 01:37:22;;;;;;;20.53;14.63;;;5.40;1.00;;;;;;5076293;28;20560;-61
2023/11/23 01:39:49;;;;;;;22.50;15.20;;;5.40;99.90;;;;;;5077428;28;20458;-61
2023/11/23 01:42:16;;;;;;;24.43;14.03;;;5.40;69.70;;;;;;5077727;28;20544;-61
2023/11/23 01:44:45;;;;;;;22.50;13.93;;;5.30;99.90;;;;;;5077633;28;20514;-62
2023/11/23 01:47:14;;;;;;;21.30;14.30;;;5.30;99.90;;;;;;5076931;28;20913;-61
2023/11/23 01:49:44;;;;;;;20.30;15.53;;;5.40;1.00;;;;;;5077286;28;20552;-62
2023/11/23 01:52:12;;;;;;;19.60;14.27;;;5.30;83.70;;;;;;5077661;28;20472;-62
2023/11/23 01:54:39;;;;;;;27.70;17.00;;;5.30;1.00;;;;;;5077782;28;20468;-62
2023/11/23 01:57:08;;;;;;;23.40;18.60;;;5.30;1.00;;;;;;5077126;28;20489;-62
2023/11/23 01:59:36;;;;;;;19.37;15.10;;;5.30;99.90;;;;;;5077388;28;20495;-62
2023/11/23 02:02:07;;;;;;;23.60;14.77;;;5.30;1.00;;;;;;5077593;28;20453;-62
2023/11/23 02:04:34;;;;;;;20.70;14.37;;;5.30;99.90;;;;;;5077410;28;20508;-63
2023/11/23 02:07:01;;;;;;;22.80;17.30;;;5.30;1.00;;;;;;5076917;28;20980;-63
2023/11/23 02:09:30;;;;;;;24.43;16.87;;;5.40;1.00;;;;;;5076818;28;20445;-63
2023/11/23 02:11:58;;;;;;;18.47;14.00;;;5.30;1.00;;;;;;5077557;28;20493;-63
2023/11/23 02:14:26;;;;;;;21.37;14.47;;;5.30;1.00;;;;;;5077819;28;20457;-63
2023/11/23 02:16:53;;;;;;;20.63;14.13;;;5.30;1.00;;;;;;5076688;28;20563;-62
2023/11/23 02:19:22;;;;;;;21.93;14.93;;;5.30;1.80;;;;;;5077227;28;20454;-66
2023/11/23 02:21:49;;;;;;;19.70;15.33;;;5.30;67.40;;;;;;5077262;28;20879;-68
2023/11/23 02:24:18;;;;;;;22.27;15.27;;;5.30;99.90;;;;;;5076945;28;20497;-68
2023/11/23 02:26:45;;;;;;;20.20;13.73;;;5.30;99.90;;;;;;5077028;28;20897;-67
2023/11/23 02:29:12;;;;;;;21.63;15.07;;;5.30;99.90;;;;;;5076577;28;20457;-67
2023/11/23 02:31:39;;;;;;;19.53;14.77;;;5.40;99.90;;;;;;5076189;28;20521;-68
2023/11/23 02:34:06;;;;;;;21.10;14.30;;;5.40;99.90;;;;;;5076520;28;20906;-69
2023/11/23 02:36:34;;;;;;;18.47;13.70;;;5.40;99.90;;;;;;5076884;28;20933;-68
2023/11/23 02:39:01;;;;;;;20.23;14.40;;;5.50;99.90;;;;;;5076572;28;20457;-69
2023/11/23 02:41:29;;;;;;;18.80;12.80;;;5.40;99.90;;;;;;5076521;28;20461;-69
2023/11/23 02:43:57;;;;;;;16.27;11.93;;;5.40;99.90;;;;;;5076792;28;20564;-70
2023/11/23 02:46:24;;;;;;;17.70;13.13;;;5.40;99.90;;;;;;5076851;28;20467;-69
2023/11/23 02:48:51;;;;;;;16.80;12.70;;;5.40;99.90;;;;;;5076811;28;20548;-70
2023/11/23 02:51:19;;;;;;;19.30;13.90;;;5.50;99.90;;;;;;5076724;28;20493;-70
2023/11/23 02:53:47;;;;;;;16.93;13.20;;;5.60;99.90;;;;;;5076621;28;20548;-70
2023/11/23 02:56:16;;;;;;;16.53;13.27;;;5.60;99.90;;;;;;5076605;28;20491;-70
2023/11/23 02:58:46;;;;;;;19.57;13.83;;;5.60;99.90;;;;;;5076718;28;20539;-70
2023/11/23 03:01:13;;;;;;;18.70;14.10;;;5.60;99.90;;;;;;5076765;28;20757;-69
2023/11/23 03:03:41;;;;;;;17.57;13.93;;;5.60;99.90;;;;;;5075758;28;20464;-69
2023/11/23 03:06:09;;;;;;;20.33;15.97;;;5.60;99.90;;;;;;5079050;28;20750;-69
2023/11/23 03:08:36;;;;;;;19.73;15.47;;;5.60;99.90;;;;;;5080416;28;20464;-70
2023/11/23 03:11:04;;;;;;;20.47;15.83;;;5.60;99.90;;;;;;5079680;28;20489;-69
2023/11/23 03:13:31;;;;;;;19.33;15.93;;;5.60;99.90;;;;;;5079590;28;20462;-70
2023/11/23 03:16:00;;;;;;;23.03;17.20;;;5.60;99.90;;;;;;5079382;28;20572;-70
2023/11/23 03:18:27;;;;;;;22.77;17.03;;;5.60;99.90;;;;;;5080218;28;20849;-70
2023/11/23 03:20:54;;;;;;;23.10;16.37;;;5.70;99.90;;;;;;5079777;28;20559;-69
2023/11/23 03:23:22;;;;;;;22.90;18.53;;;5.70;99.90;;;;;;5080440;28;20917;-67
2023/11/23 03:25:49;;;;;;;24.47;18.13;;;5.70;99.90;;;;;;5080657;28;20468;-66
2023/11/23 03:28:16;;;;;;;19.47;16.00;;;5.80;99.90;;;;;;5081025;28;20455;-67
2023/11/23 03:30:43;;;;;;;28.73;19.80;;;5.80;99.90;;;;;;5080807;28;20861;-68
2023/11/23 03:33:12;;;;;;;24.20;19.30;;;5.80;99.90;;;;;;5080297;28;20548;-68
2023/11/23 03:35:40;;;;;;;25.77;17.80;;;5.80;99.90;;;;;;5080181;28;20776;-69
2023/11/23 03:38:07;;;;;;;22.70;17.00;;;5.80;99.90;;;;;;5080574;28;20469;-67
2023/11/23 03:40:35;;;;;;;21.63;18.03;;;5.80;99.90;;;;;;5080838;28;20495;-67
2023/11/23 03:43:03;;;;;;;24.67;17.83;;;5.80;99.90;;;;;;5085174;28;20461;-68
2023/11/23 03:45:32;;;;;;;21.20;17.10;;;5.80;99.90;;;;;;5083424;28;20468;-69
2023/11/23 03:48:00;;;;;;;22.30;17.00;;;5.80;99.90;;;;;;5082568;28;20556;-69
2023/11/23 03:50:28;;;;;;;21.30;16.90;;;5.80;99.90;;;;;;5079923;28;20815;-70
2023/11/23 03:52:56;;;;;;;22.90;15.97;;;5.90;99.90;;;;;;5061981;28;20462;-70
2023/11/23 03:55:23;;;;;;;21.73;15.53;;;5.90;99.90;;;;;;5059520;28;20468;-71
2023/11/23 03:57:50;;;;;;;21.40;15.40;;;5.90;99.90;;;;;;5059347;28;20458;-71
2023/11/23 04:00:18;;;;;;;18.80;14.93;;;5.90;99.90;;;;;;5059234;28;20805;-71
2023/11/23 04:02:46;;;;;;;16.03;12.80;;;6.00;99.90;;;;;;5059419;28;20482;-71
2023/11/23 04:05:17;;;;;;;19.93;15.40;;;6.00;99.90;;;;;;5058680;28;20883;-71
2023/11/23 04:07:47;;;;;;;23.80;16.40;;;6.10;99.90;;;;;;5059220;28;20490;-71
2023/11/23 04:10:41;;;;;;;23.73;17.57;;;6.20;99.90;;;;;;5058633;28;20767;-71
2023/11/23 04:13:09;;;;;;;22.57;17.23;;;6.20;99.90;;;;;;5058744;28;20494;-71
2023/11/23 04:15:37;;;;;;;25.67;17.20;;;6.20;99.90;;;;;;5058759;28;20466;-71
2023/11/23 04:18:05;;;;;;;22.20;17.90;;;6.30;99.90;;;;;;5059345;28;20509;-70
2023/11/23 04:20:32;;;;;;;25.30;18.27;;;6.30;99.90;;;;;;5059067;28;20513;-71
2023/11/23 04:23:01;;;;;;;30.57;20.03;;;6.30;99.90;;;;;;5058481;28;20462;-71
2023/11/23 04:25:28;;;;;;;29.10;20.80;;;6.40;99.90;;;;;;5058566;28;20757;-71
2023/11/23 04:27:57;;;;;;;31.70;22.17;;;6.40;99.90;;;;;;5058623;28;20528;-72
2023/11/23 04:30:25;;;;;;;33.57;22.03;;;6.50;99.90;;;;;;5058734;28;20526;-71
2023/11/23 04:32:52;;;;;;;31.70;22.73;;;6.50;99.90;;;;;;5058136;28;20490;-71
2023/11/23 04:35:19;;;;;;;32.90;23.20;;;6.50;99.90;;;;;;5058487;28;20469;-72
2023/11/23 04:37:46;;;;;;;38.73;25.90;;;6.50;99.90;;;;;;5058455;28;20459;-72
2023/11/23 04:40:15;;;;;;;36.50;24.87;;;6.60;99.90;;;;;;5058658;28;20850;-71
2023/11/23 04:42:45;;;;;;;35.30;24.80;;;6.60;99.90;;;;;;5058549;28;20450;-71
2023/11/23 04:45:12;;;;;;;36.60;23.60;;;6.60;99.90;;;;;;5058093;28;20462;-71
2023/11/23 04:47:40;;;;;;;35.27;24.00;;;6.60;99.90;;;;;;5057945;28;20545;-71
2023/11/23 04:50:07;;;;;;;36.97;24.30;;;6.60;99.90;;;;;;5058298;28;20513;-71
2023/11/23 04:52:35;;;;;;;42.53;26.30;;;6.70;99.90;;;;;;5057947;28;20526;-71
2023/11/23 04:55:02;;;;;;;36.10;25.27;;;6.70;99.90;;;;;;5057859;28;20466;-71
2023/11/23 04:57:31;;;;;;;38.03;25.07;;;6.70;99.90;;;;;;5057713;28;20974;-71
2023/11/23 04:59:59;;;;;;;35.17;24.77;;;6.70;99.90;;;;;;5058163;28;20950;-70
2023/11/23 05:02:26;;;;;;;43.53;26.83;;;6.80;99.90;;;;;;5057681;28;20454;-70
2023/11/23 05:04:53;;;;;;;39.00;27.60;;;6.80;99.90;;;;;;5057559;28;20512;-69
2023/11/23 05:07:22;;;;;;;39.60;24.90;;;6.90;99.90;;;;;;5057146;28;20478;-69
2023/11/23 05:09:49;;;;;;;42.10;27.67;;;6.90;99.90;;;;;;5066133;28;20887;-69
2023/11/23 05:12:19;;;;;;;41.03;27.50;;;6.90;99.90;;;;;;5076546;28;20477;-69
2023/11/23 05:14:48;;;;;;;42.63;27.37;;;6.90;99.90;;;;;;5077029;28;20965;-69
2023/11/23 05:17:15;;;;;;;42.60;27.93;;;7.00;99.90;;;;;;5077731;28;20755;-69
2023/11/23 05:19:43;;;;;;;42.37;28.67;;;7.00;99.90;;;;;;5077577;28;20910;-68
2023/11/23 05:22:10;;;;;;;38.80;26.90;;;7.00;99.90;;;;;;5077491;28;20464;-69
2023/11/23 05:24:37;;;;;;;45.87;30.33;;;7.00;99.90;;;;;;5077405;28;20511;-69
2023/11/23 05:27:06;;;;;;;44.83;30.90;;;7.00;99.90;;;;;;5076966;28;20461;-70
2023/11/23 05:29:33;;;;;;;41.40;28.03;;;7.00;99.90;;;;;;5077296;28;20762;-68
2023/11/23 05:32:02;;;;;;;44.33;29.90;;;7.10;99.90;;;;;;5077530;28;20500;-69
2023/11/23 05:34:29;;;;;;;41.83;28.23;;;7.10;99.90;;;;;;5077485;28;20494;-68
2023/11/23 05:36:56;;;;;;;38.40;27.73;;;7.10;99.90;;;;;;5077308;28;20500;-68
2023/11/23 05:39:23;;;;;;;44.73;29.50;;;7.10;99.90;;;;;;5076411;28;20548;-68
2023/11/23 05:41:50;;;;;;;45.40;28.60;;;7.10;99.90;;;;;;5076770;28;20459;-68
2023/11/23 05:44:18;;;;;;;41.83;28.20;;;7.10;99.90;;;;;;5076034;28;20555;-69
2023/11/23 05:46:47;;;;;;;39.40;27.60;;;7.10;99.90;;;;;;5076787;28;20500;-69
2023/11/23 05:49:17;;;;;;;40.50;28.20;;;7.10;99.90;;;;;;5075393;28;20460;-69
2023/11/23 05:51:44;;;;;;;44.70;29.23;;;7.20;99.90;;;;;;5075658;28;20580;-69
2023/11/23 05:54:11;;;;;;;40.23;28.30;;;7.20;99.90;;;;;;5075514;28;20462;-68
2023/11/23 05:56:40;;;;;;;44.97;28.10;;;7.20;99.90;;;;;;5074795;28;20475;-68
2023/11/23 05:59:07;;;;;;;40.60;28.10;;;7.20;99.90;;;;;;5075384;28;20461;-69
2023/11/23 06:01:34;;;;;;;44.30;30.17;;;7.20;99.90;;;;;;5075401;28;20453;-68
2023/11/23 06:04:02;;;;;;;38.00;27.57;;;7.30;99.90;;;;;;5075661;28;20560;-70
2023/11/23 06:06:30;;;;;;;45.53;31.03;;;7.30;99.90;;;;;;5076628;28;20488;-67
2023/11/23 06:08:57;;;;;;;42.33;28.27;;;7.30;99.90;;;;;;5076713;28;20552;-68
2023/11/23 06:11:25;;;;;;;48.97;31.17;;;7.30;99.90;;;;;;5075809;28;20489;-69
2023/11/23 06:13:52;;;;;;;43.03;28.50;;;7.40;99.90;;;;;;5077034;28;20547;-69
2023/11/23 06:16:19;;;;;;;43.63;29.20;;;7.40;99.90;;;;;;5076754;28;20450;-70
2023/11/23 06:18:46;;;;;;;47.93;31.07;;;7.40;99.90;;;;;;5075650;28;20449;-68
2023/11/23 06:21:14;;;;;;;44.73;30.27;;;7.40;99.90;;;;;;5075932;28;20468;-69
2023/11/23 06:23:42;;;;;;;41.20;29.37;;;7.40;99.90;;;;;;5075673;28;20726;-67
2023/11/23 06:26:10;;;;;;;48.40;29.43;;;7.40;99.90;;;;;;5077015;28;20457;-67
2023/11/23 06:28:38;;;;;;;43.37;31.50;;;7.50;99.90;;;;;;5076743;28;20519;-67
2023/11/23 06:31:05;;;;;;;46.67;29.33;;;7.50;99.90;;;;;;5076223;28;20473;-71
2023/11/23 06:33:33;;;;;;;44.13;28.50;;;7.50;99.90;;;;;;5076854;28;20497;-68
2023/11/23 06:36:00;;;;;;;45.03;29.80;;;7.60;99.90;;;;;;5077077;28;20914;-71
2023/11/23 06:38:28;;;;;;;42.53;29.10;;;7.70;99.90;;;;;;5077647;28;20457;-65
2023/11/23 06:40:58;;;;;;;41.70;29.97;;;7.70;99.90;;;;;;5079057;28;20468;-64
2023/11/23 06:43:25;;;;;;;40.93;27.80;;;7.70;99.90;;;;;;5079627;28;20457;-63
2023/11/23 06:45:53;;;;;;;39.30;27.60;;;7.70;99.90;;;;;;5079013;28;20463;-64
2023/11/23 06:48:20;;;;;;;42.70;29.80;;;7.70;99.90;;;;;;5079128;28;20874;-63
2023/11/23 06:50:47;;;;;;;41.00;26.60;;;7.70;99.90;;;;;;5078798;28;20453;-66
2023/11/23 06:53:14;;;;;;;43.83;29.63;;;7.70;99.90;;;;;;5078921;28;20481;-65
2023/11/23 06:55:41;;;;;;;38.80;28.50;;;7.70;99.90;;;;;;5078695;28;20916;-64
2023/11/23 06:58:10;;;;;;;42.50;30.40;;;7.70;99.90;;;;;;5079168;28;20967;-66
2023/11/23 07:00:38;;;;;;;40.20;29.00;;;7.70;99.90;;;;;;5080404;28;20453;-66
2023/11/23 07:03:05;;;;;;;47.83;29.10;;;7.80;99.90;;;;;;5080065;28;20459;-66
2023/11/23 07:05:32;;;;;;;41.10;29.80;;;7.80;99.90;;;;;;5080184;28;20965;-65
2023/11/23 07:08:00;;;;;;;43.07;29.90;;;7.80;99.90;;;;;;5080254;28;20949;-63
2023/11/23 07:10:27;;;;;;;44.70;31.27;;;7.80;99.90;;;;;;5079133;28;20553;-63
2023/11/23 07:12:54;;;;;;;47.60;30.70;;;7.90;99.90;;;;;;5079680;28;20595;-67
2023/11/23 07:15:26;;;;;;;48.80;29.73;;;7.90;99.90;;;;;;5080062;28;20489;-63
2023/11/23 07:17:53;;;;;;;42.10;30.20;;;7.90;99.90;;;;;;5079648;28;20922;-64
2023/11/23 07:20:20;;;;;;;45.53;30.03;;;7.90;99.90;;;;;;5079863;28;20523;-65
2023/11/23 07:22:48;;;;;;;44.00;30.20;;;7.90;99.90;;;;;;5079293;28;20459;-66
2023/11/23 07:25:15;;;;;;;43.03;29.80;;;8.00;99.90;;;;;;5079916;28;20457;-65
2023/11/23 07:27:42;;;;;;;43.73;31.23;;;8.00;99.90;;;;;;5079806;28;20484;-65
2023/11/23 07:30:10;;;;;;;43.90;31.70;;;8.00;99.90;;;;;;5079820;28;20457;-63
2023/11/23 07:32:39;;;;;;;46.90;33.07;;;8.00;99.90;;;;;;5079822;28;20767;-63
2023/11/23 07:35:08;;;;;;;42.37;31.80;;;8.00;99.90;;;;;;5079549;28;20457;-63
2023/11/23 07:37:35;;;;;;;44.80;31.10;;;8.00;99.90;;;;;;5079806;28;20887;-63
2023/11/23 07:40:12;;;;;;;45.60;31.13;;;8.00;99.90;;;;;;5079510;28;20463;-63
2023/11/23 07:42:41;;;;;;;48.47;32.30;;;8.00;99.90;;;;;;5079722;28;20480;-63
2023/11/23 07:45:09;;;;;;;43.27;29.27;;;8.00;99.90;;;;;;5079336;28;20457;-64
2023/11/23 07:47:41;;;;;;;44.07;30.97;;;8.00;99.90;;;;;;5079403;28;20462;-63
2023/11/23 07:50:09;;;;;;;43.40;30.27;;;8.10;99.90;;;;;;5079645;28;20739;-63
2023/11/23 07:52:38;;;;;;;44.57;30.77;;;8.10;99.90;;;;;;5079325;28;20481;-63
2023/11/23 07:55:06;;;;;;;44.60;30.83;;;8.10;99.90;;;;;;5079112;28;20799;-63
2023/11/23 07:57:33;;;;;;;42.70;30.90;;;8.10;99.90;;;;;;5079251;28;20866;-63
2023/11/23 08:00:00;;;;;;;49.17;33.20;;;8.10;99.90;;;;;;5079022;28;20461;-63
2023/11/23 08:02:27;;;;;;;47.47;30.73;;;8.10;99.90;;;;;;5079536;28;20875;-64
2023/11/23 08:04:56;;;;;;;46.23;30.87;;;8.10;99.90;;;;;;5078313;28;20548;-64
2023/11/23 08:07:24;;;;;;;45.93;30.17;;;8.10;99.90;;;;;;5078772;28;20983;-64
2023/11/23 08:09:51;;;;;;;39.60;30.00;;;8.20;99.90;;;;;;5078954;28;20834;-63
2023/11/23 08:12:19;;;;;;;42.73;29.90;;;8.20;99.90;;;;;;5078761;28;20529;-63
2023/11/23 08:14:46;;;;;;;39.90;30.07;;;8.20;99.90;;;;;;5077657;28;20465;-63
2023/11/23 08:17:13;;;;;;;43.70;31.17;;;8.20;99.90;;;;;;5078195;28;20462;-64
2023/11/23 08:19:41;;;;;;;44.10;31.20;;;8.20;99.90;;;;;;5076708;28;20929;-63
2023/11/23 08:22:12;;;;;;;41.50;30.50;;;8.20;99.90;;;;;;5079042;28;20728;-62
2023/11/23 08:24:40;;;;;;;40.53;28.57;;;8.30;99.90;;;;;;5078851;28;20461;-62
2023/11/23 08:27:07;;;;;;;42.50;29.63;;;8.30;99.90;;;;;;5078698;28;20556;-63
2023/11/23 08:29:35;;;;;;;39.17;29.47;;;8.30;99.90;;;;;;5078571;28;20938;-63
2023/11/23 08:32:02;;;;;;;39.63;29.30;;;8.30;99.90;;;;;;5075280;28;20770;-63
2023/11/23 08:34:30;;;;;;;44.63;30.10;;;8.30;99.90;;;;;;5071454;28;20480;-63
2023/11/23 08:36:57;;;;;;;41.67;29.33;;;8.30;99.90;;;;;;5077664;28;20465;-64
2023/11/23 08:39:26;;;;;;;37.17;28.67;;;8.30;99.90;;;;;;5078308;28;20945;-63
2023/11/23 08:41:53;;;;;;;41.70;30.33;;;8.30;99.90;;;;;;5078622;28;20935;-63
2023/11/23 08:44:20;;;;;;;40.37;30.10;;;8.30;99.90;;;;;;5077642;28;20559;-62
2023/11/23 08:46:48;;;;;;;49.33;30.30;;;8.30;99.90;;;;;;5077916;28;20552;-63
2023/11/23 08:49:15;;;;;;;38.53;28.77;;;8.30;99.90;;;;;;5077302;28;20461;-63
2023/11/23 08:51:42;;;;;;;40.60;31.23;;;8.30;99.90;;;;;;5076459;28;20461;-63
2023/11/23 08:54:09;;;;;;;41.90;32.07;;;8.30;99.90;;;;;;5076041;28;20493;-62
2023/11/23 08:56:38;;;;;;;37.33;29.23;;;8.40;99.90;;;;;;5076265;28;20724;-62
2023/11/23 08:59:05;;;;;;;45.50;30.53;;;8.40;99.90;;;;;;5074933;28;20732;-63
2023/11/23 09:01:33;;;;;;;42.13;31.30;;;8.40;99.90;;;;;;5069278;28;20473;-63
2023/11/23 09:04:00;;;;;;;46.47;32.27;;;8.40;99.90;;;;;;5055810;28;20466;-63
2023/11/23 09:06:27;;;;;;;40.33;30.60;;;8.40;99.90;;;;;;5057202;28;20540;-62
2023/11/23 09:08:54;;;;;;;36.83;29.10;;;8.40;99.90;;;;;;5056858;28;20458;-62
2023/11/23 09:11:23;;;;;;;45.77;30.60;;;8.40;99.90;;;;;;5057846;28;20458;-62
2023/11/23 09:13:52;;;;;;;47.10;31.37;;;8.40;99.90;;;;;;5057982;28;20585;-62
2023/11/23 09:16:20;;;;;;;43.53;32.57;;;8.40;99.90;;;;;;5058071;28;20558;-63
2023/11/23 09:18:47;;;;;;;45.00;31.80;;;8.40;99.90;;;;;;5057378;28;20469;-62
2023/11/23 09:21:17;;;;;;;40.00;29.27;;;8.40;99.90;;;;;;5057415;28;20552;-63
2023/11/23 09:23:44;;;;;;;40.97;28.93;;;8.50;99.90;;;;;;5057858;28;20872;-62
2023/11/23 09:26:11;;;;;;;45.63;31.50;;;8.50;99.90;;;;;;5057685;28;20458;-63
2023/11/23 09:28:39;;;;;;;48.20;30.97;;;8.50;99.90;;;;;;5058134;28;20470;-62
2023/11/23 09:31:08;;;;;;;44.00;29.97;;;8.50;99.90;;;;;;5057752;28;20458;-62
2023/11/23 09:33:35;;;;;;;42.40;30.37;;;8.50;99.90;;;;;;5056902;28;20954;-62
2023/11/23 09:36:02;;;;;;;37.37;27.83;;;8.50;99.90;;;;;;5057152;28;20743;-62
2023/11/23 09:38:30;;;;;;;37.47;28.53;;;8.50;99.90;;;;;;5057556;28;20469;-62
2023/11/23 09:40:59;;;;;;;38.37;28.53;;;8.50;99.90;;;;;;5057061;28;20458;-62
2023/11/23 09:43:27;;;;;;;40.60;28.60;;;8.60;99.90;;;;;;5057663;28;20754;-62
2023/11/23 09:45:54;;;;;;;40.10;28.70;;;8.60;99.90;;;;;;5057508;28;20473;-62
2023/11/23 09:48:27;;;;;;;37.03;27.70;;;8.60;99.90;;;;;;5057841;28;20458;-63
2023/11/23 09:50:54;;;;;;;37.87;27.70;;;8.60;99.90;;;;;;5056986;28;20462;-62
2023/11/23 09:53:22;;;;;;;37.53;28.67;;;8.70;99.90;;;;;;5057038;28;20590;-63
2023/11/23 09:55:55;;;;;;;39.30;26.70;;;8.70;99.90;;;;;;5057320;28;20750;-62
2023/11/23 09:58:22;;;;;;;37.13;29.10;;;8.70;99.90;;;;;;5057224;28;20469;-62
2023/11/23 10:00:50;;;;;;;34.63;27.73;;;8.70;99.90;;;;;;5057030;28;20516;-62
2023/11/23 10:03:22;;;;;;;33.30;26.20;;;8.70;99.90;;;;;;5056995;28;20803;-63
2023/11/23 10:05:51;;;;;;;34.00;26.47;;;8.80;99.90;;;;;;5057161;28;20754;-61
2023/11/23 10:08:19;;;;;;;39.10;24.90;;;8.80;99.90;;;;;;5056131;28;21000;-63
2023/11/23 10:10:46;;;;;;;32.70;23.83;;;8.80;99.90;;;;;;5056724;28;20781;-63
2023/11/23 10:13:14;;;;;;;35.43;25.10;;;8.80;99.90;;;;;;5056752;28;20494;-61
2023/11/23 10:15:45;;;;;;;33.37;25.37;;;8.80;99.90;;;;;;5063673;28;20508;-61
2023/11/23 10:18:12;;;;;;;34.40;24.90;;;8.90;99.90;;;;;;5064026;28;20464;-61
2023/11/23 10:20:39;;;;;;;35.70;25.07;;;8.90;99.90;;;;;;5063937;28;20468;-62
2023/11/23 10:23:09;;;;;;;34.73;26.40;;;8.90;99.90;;;;;;5063469;28;20735;-61
2023/11/23 10:25:37;;;;;;;35.97;26.07;;;9.00;99.90;;;;;;5063733;28;20489;-61
2023/11/23 10:28:05;;;;;;;33.93;25.67;;;9.00;99.90;;;;;;5063341;28;20519;-62
2023/11/23 10:30:33;;;;;;;32.20;26.70;;;8.90;99.90;;;;;;5063705;28;20470;-62
2023/11/23 10:33:01;;;;;;;33.13;26.47;;;9.00;99.90;;;;;;5063012;28;20499;-62
2023/11/23 10:35:36;;;;;;;32.67;26.13;;;9.00;99.90;;;;;;5063228;28;20462;-61
2023/11/23 10:38:03;;;;;;;38.80;26.70;;;9.00;99.90;;;;;;5064174;28;20900;-60
2023/11/23 10:40:33;;;;;;;31.93;25.87;;;9.00;99.90;;;;;;5063249;28;20462;-61
2023/11/23 10:43:02;;;;;;;34.47;27.83;;;9.00;99.90;;;;;;5063100;28;20457;-62
2023/11/23 10:45:30;;;;;;;32.60;26.83;;;9.00;99.90;;;;;;5063297;28;20504;-61
2023/11/23 10:47:58;;;;;;;37.57;26.60;;;9.00;99.90;;;;;;5063812;28;20486;-61
2023/11/23 10:50:26;;;;;;;36.60;27.43;;;9.00;99.90;;;;;;5063917;28;20478;-61
2023/11/23 10:52:57;;;;;;;30.43;25.33;;;9.00;99.90;;;;;;5063463;28;20589;-61
2023/11/23 10:55:25;;;;;;;31.00;26.13;;;9.10;99.90;;;;;;5063295;28;20905;-61
2023/11/23 10:57:57;;;;;;;34.13;25.70;;;9.10;99.90;;;;;;5063130;28;20764;-60
2023/11/23 11:00:26;;;;;;;33.20;25.20;;;9.10;99.90;;;;;;5063189;28;20924;-62
2023/11/23 11:02:55;;;;;;;30.37;24.70;;;9.00;99.90;;;;;;5062638;28;20464;-61
2023/11/23 11:05:28;;;;;;;32.97;26.40;;;9.00;99.90;;;;;;5063295;28;20755;-62
2023/11/23 11:08:00;;;;;;;32.10;24.20;;;9.10;99.90;;;;;;5062936;28;20496;-62
2023/11/23 11:10:29;;;;;;;28.53;24.00;;;9.10;99.90;;;;;;5077907;28;20526;-61
2023/11/23 11:13:07;;;;;;;36.30;24.20;;;9.10;99.90;;;;;;5082575;28;20587;-61
2023/11/23 11:15:35;;;;;;;30.90;25.50;;;9.10;99.90;;;;;;5083074;28;20484;-62
2023/11/23 11:18:06;;;;;;;26.93;21.83;;;9.10;99.90;;;;;;5083451;28;20893;-69
2023/11/23 11:20:34;;;;;;;31.57;23.57;;;9.10;99.90;;;;;;5082518;28;20495;-67
2023/11/23 11:23:02;;;;;;;33.20;25.03;;;9.10;99.90;;;;;;5082990;28;20722;-67
2023/11/23 11:25:40;;;;;;;29.63;24.80;;;9.10;99.90;;;;;;5081438;28;20875;-70
2023/11/23 11:28:14;;;;;;;29.13;23.47;;;9.10;99.90;;;;;;5080102;28;20497;-67
2023/11/23 11:30:46;;;;;;;26.30;22.83;;;9.20;99.90;;;;;;5079230;28;20556;-67
2023/11/23 11:33:14;;;;;;;32.87;24.00;;;9.20;99.90;;;;;;5078986;28;20488;-62
2023/11/23 11:35:46;;;;;;;29.60;21.40;;;9.20;99.90;;;;;;5079678;28;20461;-61
2023/11/23 11:38:16;;;;;;;30.33;22.77;;;9.20;99.90;;;;;;5079417;28;20519;-63
2023/11/23 11:40:47;;;;;;;26.33;20.50;;;9.30;99.90;;;;;;5080299;28;20518;-66
2023/11/23 11:43:16;;;;;;;24.23;20.30;;;9.40;99.90;;;;;;5078065;28;20453;-65
2023/11/23 11:45:43;;;;;;;26.37;22.63;;;9.40;99.90;;;;;;5080237;28;20457;-66
2023/11/23 11:48:10;;;;;;;27.60;21.50;;;9.40;99.90;;;;;;5080192;28;20468;-66
2023/11/23 11:50:38;;;;;;;24.23;19.20;;;9.40;99.90;;;;;;5079654;28;20871;-64
2023/11/23 11:53:07;;;;;;;23.83;20.57;;;9.50;99.90;;;;;;5079034;28;20890;-66
2023/11/23 11:55:34;;;;;;;27.40;20.13;;;9.50;99.90;;;;;;5080143;28;20531;-66
2023/11/23 11:58:05;;;;;;;29.17;20.50;;;9.50;99.90;;;;;;5079930;28;20461;-66
2023/11/23 12:00:38;;;;;;;23.90;19.93;;;9.60;99.90;;;;;;5079846;28;20978;-65
2023/11/23 12:03:06;;;;;;;21.10;18.27;;;9.60;99.90;;;;;;5079799;28;20461;-66
2023/11/23 12:05:33;;;;;;;23.67;18.73;;;9.60;99.90;;;;;;5079566;28;20480;-65
2023/11/23 12:08:01;;;;;;;21.10;18.83;;;9.60;99.90;;;;;;5079861;28;20491;-67
2023/11/23 12:10:37;;;;;;;20.47;16.87;;;9.60;99.90;;;;;;5079679;28;20479;-66
2023/11/23 12:13:06;;;;;;;21.50;16.53;;;9.60;99.90;;;;;;5079069;28;20560;-67
2023/11/23 12:15:35;;;;;;;20.47;16.77;;;9.70;99.90;;;;;;5079305;28;20461;-66
2023/11/23 12:18:03;;;;;;;18.00;15.40;;;9.70;99.90;;;;;;5079571;28;20783;-66
2023/11/23 12:20:37;;;;;;;23.57;16.07;;;9.70;99.90;;;;;;5079199;28;20783;-67
2023/11/23 12:23:05;;;;;;;16.00;14.40;;;9.80;99.90;;;;;;5078459;28;20559;-66
2023/11/23 12:25:34;;;;;;;20.50;15.40;;;9.80;99.90;;;;;;5079049;28;20457;-66
2023/11/23 12:28:02;;;;;;;20.47;14.80;;;9.80;99.90;;;;;;5079516;28;20552;-68
2023/11/23 12:30:31;;;;;;;17.50;14.97;;;9.80;99.90;;;;;;5077891;28;20457;-68
2023/11/23 12:32:59;;;;;;;19.70;17.70;;;9.80;99.90;;;;;;5077116;28;20888;-68
2023/11/23 12:35:27;;;;;;;21.00;12.87;;;9.70;99.90;;;;;;5076212;28;20929;-67
2023/11/23 12:37:54;;;;;;;18.13;16.23;;;9.70;99.90;;;;;;5075172;28;20932;-67
2023/11/23 12:40:22;;;;;;;15.93;14.03;;;9.70;99.90;;;;;;5075446;28;20468;-67
2023/11/23 12:42:50;;;;;;;17.00;13.60;;;9.70;99.90;;;;;;5075789;28;20497;-67